Time;durP1;ratioP1;P1;durP2;ratioP2;P2;SDS_P1;SDS_P2;PMS_P1;PMS_P2;Temp;Humidity;BMP_temperature;BMP_pressure;BME280_temperature;BME280_humidity;BME280_pressure;Samples;Min_cycle;Max_cycle;Signal;HPM_P1;HPM_P2
2023/12/29 00:02:18;;;;;;;13.70;3.55;;;9.00;94.90;;;;;;5055517;28;20032;-51
2023/12/29 00:04:44;;;;;;;12.77;3.10;;;9.00;94.90;;;;;;5072445;28;20028;-47
2023/12/29 00:07:11;;;;;;;10.90;3.35;;;9.00;94.90;;;;;;5048075;28;20043;-47
2023/12/29 00:09:40;;;;;;;9.63;3.28;;;9.00;94.90;;;;;;5072632;28;20028;-47
2023/12/29 00:12:08;;;;;;;9.97;3.60;;;9.00;94.90;;;;;;5072780;28;20020;-47
2023/12/29 00:14:39;;;;;;;15.50;3.70;;;9.00;94.90;;;;;;5073024;28;20082;-51
2023/12/29 00:17:06;;;;;;;10.73;3.90;;;9.00;94.80;;;;;;5073176;28;20028;-47
2023/12/29 00:19:32;;;;;;;10.45;3.70;;;9.00;94.80;;;;;;5073072;28;20032;-51
2023/12/29 00:21:59;;;;;;;12.90;4.20;;;9.00;94.70;;;;;;5072935;28;20041;-47
2023/12/29 00:24:28;;;;;;;18.55;5.03;;;9.10;94.70;;;;;;5073022;28;20021;-51
2023/12/29 00:26:54;;;;;;;18.67;6.43;;;9.10;94.60;;;;;;5075202;28;20434;-47
2023/12/29 00:29:20;;;;;;;9.57;3.53;;;9.10;94.60;;;;;;5076818;28;20089;-51
2023/12/29 00:31:46;;;;;;;16.65;5.40;;;9.10;94.50;;;;;;5077014;28;20020;-48
2023/12/29 00:34:13;;;;;;;14.98;4.63;;;9.10;94.50;;;;;;5061435;28;20036;-48
2023/12/29 00:36:43;;;;;;;12.43;4.03;;;9.10;94.40;;;;;;5077109;28;20070;-47
2023/12/29 00:39:10;;;;;;;17.15;5.13;;;9.10;94.40;;;;;;5075615;28;20024;-47
2023/12/29 00:41:39;;;;;;;14.35;4.00;;;9.10;94.40;;;;;;5076900;28;20035;-47
2023/12/29 00:44:07;;;;;;;14.75;3.90;;;9.10;94.30;;;;;;5076789;28;20028;-48
2023/12/29 00:46:35;;;;;;;12.32;2.88;;;9.10;94.30;;;;;;5076702;28;20100;-50
2023/12/29 00:49:01;;;;;;;14.80;4.75;;;9.10;94.20;;;;;;5076835;28;20454;-50
2023/12/29 00:51:27;;;;;;;14.18;3.45;;;9.10;94.20;;;;;;5077606;28;20047;-49
2023/12/29 00:53:54;;;;;;;10.52;3.42;;;9.10;94.20;;;;;;5075647;28;20081;-52
2023/12/29 00:56:24;;;;;;;13.38;4.07;;;9.10;94.10;;;;;;5064675;28;20036;-46
2023/12/29 00:58:51;;;;;;;17.83;4.57;;;9.10;94.00;;;;;;5076495;28;20055;-49
2023/12/29 01:01:18;;;;;;;15.18;3.38;;;9.10;93.90;;;;;;5076555;28;20032;-48
2023/12/29 01:03:44;;;;;;;13.77;3.70;;;9.10;93.90;;;;;;5076386;28;20026;-46
2023/12/29 01:06:12;;;;;;;14.93;3.65;;;9.10;93.80;;;;;;5076509;28;20021;-48
2023/12/29 01:08:39;;;;;;;18.35;3.47;;;9.10;93.80;;;;;;5076428;28;20033;-46
2023/12/29 01:11:06;;;;;;;12.57;3.08;;;9.10;93.80;;;;;;5075958;28;20032;-46
2023/12/29 01:13:33;;;;;;;9.55;3.25;;;9.10;93.70;;;;;;5075926;28;20078;-48
2023/12/29 01:16:02;;;;;;;11.90;3.55;;;9.10;93.70;;;;;;5073173;28;20044;-49
2023/12/29 01:18:29;;;;;;;18.60;4.65;;;9.10;93.60;;;;;;5060317;28;20453;-48
2023/12/29 01:20:55;;;;;;;10.85;3.22;;;9.20;93.60;;;;;;5074578;28;20041;-47
2023/12/29 01:23:22;;;;;;;14.80;3.33;;;9.10;93.50;;;;;;5076265;28;20048;-50
2023/12/29 01:25:48;;;;;;;14.25;3.28;;;9.20;93.60;;;;;;5076126;28;20020;-46
2023/12/29 01:28:14;;;;;;;9.73;3.03;;;9.10;93.60;;;;;;5076529;28;20028;-48
2023/12/29 01:30:41;;;;;;;11.18;3.08;;;9.10;93.60;;;;;;5074970;28;20029;-48
2023/12/29 01:33:10;;;;;;;14.80;4.32;;;9.20;93.60;;;;;;5075963;28;20342;-48
2023/12/29 01:35:39;;;;;;;13.50;3.03;;;9.20;93.50;;;;;;5081570;28;20028;-47
2023/12/29 01:38:08;;;;;;;11.18;4.13;;;9.20;93.50;;;;;;5049632;28;20112;-48
2023/12/29 01:40:45;;;;;;;9.88;2.83;;;9.20;93.40;;;;;;5074017;28;20048;-48
2023/12/29 01:43:12;;;;;;;17.08;3.38;;;9.10;93.40;;;;;;5074759;28;20036;-48
2023/12/29 01:45:39;;;;;;;18.30;3.58;;;9.10;93.40;;;;;;5075787;28;20025;-46
2023/12/29 01:48:07;;;;;;;11.30;2.50;;;9.20;93.40;;;;;;5075569;28;20036;-47
2023/12/29 01:50:35;;;;;;;15.40;3.13;;;9.10;93.30;;;;;;5057792;28;20028;-46
2023/12/29 01:53:03;;;;;;;10.57;2.90;;;9.10;93.10;;;;;;5075575;28;20036;-49
2023/12/29 01:55:31;;;;;;;20.55;4.05;;;9.20;92.90;;;;;;5075597;28;20400;-46
2023/12/29 01:58:00;;;;;;;11.82;3.00;;;9.10;92.80;;;;;;5091448;28;20082;-48
2023/12/29 02:00:33;;;;;;;10.27;2.67;;;9.10;92.80;;;;;;5075304;28;20024;-46
2023/12/29 02:03:00;;;;;;;10.23;3.00;;;9.10;92.70;;;;;;5075435;28;20488;-48
2023/12/29 02:05:29;;;;;;;14.80;4.15;;;9.10;92.60;;;;;;5091286;28;20035;-46
2023/12/29 02:07:56;;;;;;;10.88;2.13;;;9.10;92.60;;;;;;5075448;28;20027;-48
2023/12/29 02:10:24;;;;;;;7.85;3.10;;;9.10;92.40;;;;;;5075308;28;20087;-47
2023/12/29 02:12:54;;;;;;;11.35;3.25;;;9.10;92.20;;;;;;5075057;28;20048;-46
2023/12/29 02:15:24;;;;;;;10.88;2.30;;;9.00;92.10;;;;;;5075336;28;20434;-47
2023/12/29 02:18:06;;;;;;;10.60;2.17;;;9.10;92.10;;;;;;5075268;28;20334;-46
2023/12/29 02:20:36;;;;;;;9.55;2.17;;;9.10;91.90;;;;;;5075011;28;20057;-46
2023/12/29 02:23:06;;;;;;;15.50;3.85;;;9.00;91.90;;;;;;5075132;28;20071;-46
2023/12/29 02:25:32;;;;;;;12.50;2.60;;;9.10;92.10;;;;;;5073888;28;20024;-47
2023/12/29 02:28:12;;;;;;;8.63;2.92;;;9.00;92.10;;;;;;5075062;28;20021;-49
2023/12/29 02:31:03;;;;;;;13.10;3.25;;;9.10;92.20;;;;;;5074686;28;20410;-46
2023/12/29 02:33:36;;;;;;;9.35;2.38;;;9.10;92.10;;;;;;5074894;28;20146;-47
2023/12/29 02:36:05;;;;;;;16.80;2.72;;;9.10;92.10;;;;;;5067704;28;20116;-46
2023/12/29 02:38:33;;;;;;;12.90;2.60;;;9.10;92.20;;;;;;5073296;28;20029;-50
2023/12/29 02:41:00;;;;;;;6.63;2.10;;;9.10;92.10;;;;;;5074007;28;20027;-47
2023/12/29 02:43:27;;;;;;;9.65;2.42;;;9.10;92.20;;;;;;5074633;28;20046;-47
2023/12/29 02:45:56;;;;;;;14.23;2.90;;;9.20;92.10;;;;;;5074497;28;20047;-48
2023/12/29 02:48:26;;;;;;;11.63;2.77;;;9.10;92.30;;;;;;5073661;28;20036;-48
2023/12/29 02:50:52;;;;;;;11.70;2.83;;;9.10;92.20;;;;;;5073905;28;20501;-48
2023/12/29 02:53:18;;;;;;;15.20;3.35;;;9.20;92.20;;;;;;5074130;28;20039;-46
2023/12/29 02:55:45;;;;;;;15.75;4.13;;;9.20;92.10;;;;;;5074233;28;20127;-49
2023/12/29 02:58:12;;;;;;;13.40;2.83;;;9.10;92.10;;;;;;5074372;28;20089;-46
2023/12/29 03:00:39;;;;;;;13.75;2.97;;;9.10;92.00;;;;;;5074166;28;20028;-50
2023/12/29 03:03:07;;;;;;;16.30;3.08;;;9.10;91.90;;;;;;5073749;28;20467;-50
2023/12/29 03:05:34;;;;;;;7.55;2.35;;;9.20;91.80;;;;;;5073868;28;20037;-47
2023/12/29 03:08:03;;;;;;;12.35;4.03;;;9.10;91.50;;;;;;5074048;28;20023;-46
2023/12/29 03:10:30;;;;;;;9.15;2.92;;;9.10;91.20;;;;;;5090155;28;20299;-46
2023/12/29 03:12:59;;;;;;;10.05;2.50;;;9.10;90.90;;;;;;5074096;28;20074;-46
2023/12/29 03:15:28;;;;;;;17.30;3.93;;;9.10;90.50;;;;;;5085865;28;20032;-47
2023/12/29 03:17:55;;;;;;;9.02;2.58;;;9.10;90.20;;;;;;5093529;28;20273;-47
2023/12/29 03:20:21;;;;;;;7.63;1.85;;;9.10;89.80;;;;;;5073690;28;20036;-47
2023/12/29 03:22:50;;;;;;;9.55;3.42;;;9.00;89.60;;;;;;5073909;28;20095;-46
2023/12/29 03:25:17;;;;;;;9.82;1.70;;;9.00;89.40;;;;;;5072575;28;20032;-46
2023/12/29 03:27:43;;;;;;;4.07;1.15;;;9.00;89.00;;;;;;5075021;28;20499;-48
2023/12/29 03:30:10;;;;;;;9.75;1.67;;;9.00;88.40;;;;;;5070827;28;20032;-50
2023/12/29 03:32:40;;;;;;;7.82;1.75;;;9.00;87.70;;;;;;5075632;28;20430;-46
2023/12/29 03:35:07;;;;;;;9.00;2.10;;;8.90;87.20;;;;;;5088781;28;20074;-46
2023/12/29 03:37:34;;;;;;;5.65;2.05;;;8.90;86.60;;;;;;5066631;28;20509;-47
2023/12/29 03:40:03;;;;;;;3.45;0.98;;;8.80;86.50;;;;;;5073083;28;20353;-46
2023/12/29 03:42:30;;;;;;;6.45;1.75;;;8.70;86.40;;;;;;5072640;28;20033;-47
2023/12/29 03:44:58;;;;;;;6.13;1.50;;;8.60;86.30;;;;;;5073349;28;20029;-50
2023/12/29 03:47:24;;;;;;;4.40;1.05;;;8.50;86.30;;;;;;5073386;28;20147;-46
2023/12/29 03:49:50;;;;;;;3.75;0.95;;;8.50;86.20;;;;;;5079259;28;20050;-53
2023/12/29 03:52:16;;;;;;;4.00;1.30;;;8.40;86.60;;;;;;5073465;28;20020;-49
2023/12/29 03:54:45;;;;;;;7.18;1.42;;;8.30;86.80;;;;;;5083117;28;20042;-47
2023/12/29 03:57:10;;;;;;;6.57;1.30;;;8.30;87.20;;;;;;5072287;28;20032;-47
2023/12/29 03:59:37;;;;;;;13.77;2.15;;;8.20;87.50;;;;;;5073309;28;20054;-47
2023/12/29 04:02:04;;;;;;;11.73;2.17;;;8.20;87.70;;;;;;5073258;28;20016;-48
2023/12/29 04:04:37;;;;;;;8.55;1.80;;;8.00;88.30;;;;;;5071890;28;20465;-51
2023/12/29 04:07:03;;;;;;;7.65;1.80;;;8.00;88.80;;;;;;5073328;28;20446;-46
2023/12/29 04:09:30;;;;;;;9.88;2.28;;;8.00;89.00;;;;;;5073192;28;20032;-46
2023/12/29 04:11:57;;;;;;;6.03;1.38;;;8.00;89.10;;;;;;5073180;28;20104;-46
2023/12/29 04:14:25;;;;;;;7.78;2.15;;;8.00;89.30;;;;;;5077707;28;20709;-46
2023/12/29 04:16:52;;;;;;;13.88;2.45;;;8.00;89.40;;;;;;5073272;28;20107;-47
2023/12/29 04:19:21;;;;;;;16.85;2.72;;;8.00;89.60;;;;;;5073047;28;20028;-46
2023/12/29 04:21:48;;;;;;;16.58;3.53;;;8.00;89.70;;;;;;5072838;28;20092;-49
2023/12/29 04:24:15;;;;;;;17.20;3.25;;;8.00;89.80;;;;;;5072999;28;20052;-46
2023/12/29 04:26:42;;;;;;;17.73;2.88;;;7.90;90.10;;;;;;5073094;28;20051;-46
2023/12/29 04:29:07;;;;;;;18.92;3.85;;;7.90;90.20;;;;;;5073049;28;20029;-47
2023/12/29 04:31:34;;;;;;;15.02;3.25;;;8.00;90.40;;;;;;5072846;28;20039;-46
2023/12/29 04:34:03;;;;;;;21.60;4.90;;;8.00;90.40;;;;;;5074938;28;20029;-46
2023/12/29 04:36:28;;;;;;;20.95;4.28;;;8.10;90.30;;;;;;5085525;28;20035;-46
2023/12/29 04:38:55;;;;;;;18.42;3.80;;;8.10;90.40;;;;;;5072822;28;20033;-47
2023/12/29 04:41:25;;;;;;;21.30;4.53;;;8.10;90.30;;;;;;5077790;28;20031;-46
2023/12/29 04:43:52;;;;;;;17.27;5.47;;;8.10;90.30;;;;;;5072806;28;20059;-48
2023/12/29 04:46:21;;;;;;;17.75;3.92;;;8.10;90.30;;;;;;5072871;28;20442;-46
2023/12/29 04:48:48;;;;;;;19.92;4.60;;;8.20;90.30;;;;;;5073047;28;20032;-47
2023/12/29 04:51:14;;;;;;;19.33;3.78;;;8.20;90.40;;;;;;5072631;28;20033;-47
2023/12/29 04:53:41;;;;;;;16.80;3.67;;;8.20;90.40;;;;;;5072639;28;20109;-46
2023/12/29 04:56:07;;;;;;;21.77;5.43;;;8.20;90.50;;;;;;5072813;28;20392;-46
2023/12/29 04:58:34;;;;;;;15.70;3.30;;;8.20;90.50;;;;;;5072593;28;20453;-47
2023/12/29 05:01:03;;;;;;;17.02;3.95;;;8.20;90.80;;;;;;5072778;28;20446;-49
2023/12/29 05:03:30;;;;;;;21.00;4.60;;;8.30;91.00;;;;;;5072785;28;20158;-46
2023/12/29 05:05:57;;;;;;;16.20;4.15;;;8.30;90.90;;;;;;5072818;28;20054;-46
2023/12/29 05:08:26;;;;;;;15.75;4.50;;;8.30;91.00;;;;;;5072628;28;20032;-46
2023/12/29 05:10:53;;;;;;;22.80;5.07;;;8.40;91.20;;;;;;5072371;28;20657;-48
2023/12/29 05:13:19;;;;;;;17.48;3.92;;;8.40;91.00;;;;;;5077806;28;20450;-46
2023/12/29 05:15:45;;;;;;;24.98;5.20;;;8.50;90.80;;;;;;5076301;28;20029;-49
2023/12/29 05:18:12;;;;;;;17.10;3.70;;;8.50;90.50;;;;;;5058528;28;20036;-46
2023/12/29 05:20:39;;;;;;;24.67;4.25;;;8.40;90.50;;;;;;5076051;28;20044;-46
2023/12/29 05:23:08;;;;;;;20.92;4.65;;;8.50;90.60;;;;;;5076223;28;20078;-46
2023/12/29 05:25:35;;;;;;;25.67;4.03;;;8.40;90.60;;;;;;5075970;28;20055;-46
2023/12/29 05:28:06;;;;;;;18.83;4.35;;;8.40;90.80;;;;;;5058326;28;20059;-47
2023/12/29 05:30:33;;;;;;;22.73;4.70;;;8.40;90.80;;;;;;5076959;28;20024;-46
2023/12/29 05:33:00;;;;;;;20.73;3.95;;;8.40;90.40;;;;;;5075868;28;20032;-48
2023/12/29 05:35:29;;;;;;;20.67;3.97;;;8.40;90.30;;;;;;5074044;28;20029;-48
2023/12/29 05:37:55;;;;;;;23.55;6.00;;;8.40;90.40;;;;;;5075045;28;20052;-47
2023/12/29 05:40:22;;;;;;;21.48;5.32;;;8.40;90.10;;;;;;5073797;28;20071;-46
2023/12/29 05:42:55;;;;;;;21.02;4.60;;;8.50;89.90;;;;;;5075076;28;20088;-47
2023/12/29 05:45:22;;;;;;;21.63;5.57;;;8.50;89.60;;;;;;5074056;28;20116;-46
2023/12/29 05:47:49;;;;;;;24.17;4.53;;;8.60;89.40;;;;;;5075111;28;20017;-47
2023/12/29 05:50:17;;;;;;;18.27;3.92;;;8.60;88.70;;;;;;5074390;28;20439;-51
2023/12/29 05:52:43;;;;;;;22.20;3.92;;;8.70;88.30;;;;;;5075408;28;20036;-47
2023/12/29 05:55:09;;;;;;;20.95;5.20;;;8.80;88.10;;;;;;5075496;28;20485;-46
2023/12/29 05:57:38;;;;;;;17.77;3.85;;;8.80;87.80;;;;;;5064935;28;20111;-48
2023/12/29 06:00:06;;;;;;;33.43;5.17;;;8.90;87.70;;;;;;5076248;28;20029;-49
2023/12/29 06:02:33;;;;;;;24.30;6.20;;;8.90;87.70;;;;;;5075026;28;20025;-46
2023/12/29 06:05:00;;;;;;;17.58;4.45;;;8.90;87.80;;;;;;5075194;28;20062;-47
2023/12/29 06:07:26;;;;;;;16.63;4.88;;;8.90;87.70;;;;;;5075149;28;20456;-49
2023/12/29 06:09:52;;;;;;;22.20;4.45;;;8.90;87.60;;;;;;5076432;28;20044;-51
2023/12/29 06:12:22;;;;;;;23.83;4.88;;;8.90;87.10;;;;;;5076356;28;20021;-47
2023/12/29 06:14:51;;;;;;;27.23;6.65;;;8.90;86.90;;;;;;5077205;28;20055;-51
2023/12/29 06:17:20;;;;;;;27.17;5.15;;;8.90;86.10;;;;;;5074778;28;20071;-48
2023/12/29 06:19:47;;;;;;;22.27;5.03;;;8.90;85.60;;;;;;5077536;28;20086;-49
2023/12/29 06:22:14;;;;;;;14.13;4.63;;;8.90;85.60;;;;;;5049230;28;20057;-49
2023/12/29 06:24:41;;;;;;;29.58;6.30;;;8.90;85.60;;;;;;5062942;28;20079;-49
2023/12/29 06:27:12;;;;;;;18.27;5.32;;;8.90;85.20;;;;;;5061903;28;20024;-47
2023/12/29 06:29:40;;;;;;;20.90;4.03;;;8.90;85.00;;;;;;5061469;28;20025;-51
2023/12/29 06:32:07;;;;;;;18.23;4.50;;;8.90;84.90;;;;;;5057902;28;20022;-50
2023/12/29 06:34:32;;;;;;;21.70;4.97;;;8.90;84.60;;;;;;5065779;28;20016;-49
2023/12/29 06:36:59;;;;;;;18.35;4.68;;;8.90;84.70;;;;;;5057304;28;20654;-47
2023/12/29 06:39:25;;;;;;;28.90;5.03;;;8.90;85.00;;;;;;5058696;28;20107;-47
2023/12/29 06:41:52;;;;;;;22.65;5.95;;;8.90;85.20;;;;;;5054461;28;20033;-47
2023/12/29 06:44:19;;;;;;;19.83;4.40;;;8.90;85.70;;;;;;5065815;28;20465;-51
2023/12/29 06:46:45;;;;;;;25.40;5.93;;;8.90;86.00;;;;;;5037128;28;20493;-47
2023/12/29 06:49:15;;;;;;;22.17;5.63;;;8.90;86.20;;;;;;5061387;28;20039;-47
2023/12/29 06:51:41;;;;;;;14.65;3.55;;;8.80;86.50;;;;;;5065174;28;20103;-48
2023/12/29 06:54:07;;;;;;;20.60;5.60;;;8.80;86.70;;;;;;5065393;28;20124;-48
2023/12/29 06:56:33;;;;;;;22.85;5.47;;;8.80;86.90;;;;;;5054091;28;20028;-47
2023/12/29 06:59:00;;;;;;;18.20;3.88;;;8.80;86.90;;;;;;5063246;28;20085;-48
2023/12/29 07:01:26;;;;;;;27.02;4.57;;;8.70;87.20;;;;;;5068955;28;20335;-49
2023/12/29 07:03:53;;;;;;;23.33;5.50;;;8.80;87.10;;;;;;5058165;28;20109;-47
2023/12/29 07:06:23;;;;;;;27.00;5.32;;;8.80;87.00;;;;;;5057110;28;20016;-49
2023/12/29 07:08:50;;;;;;;26.48;5.95;;;8.80;86.80;;;;;;5061770;28;20103;-48
2023/12/29 07:11:16;;;;;;;21.90;5.30;;;8.90;87.00;;;;;;5065062;28;20025;-49
2023/12/29 07:13:43;;;;;;;23.23;6.32;;;8.90;86.80;;;;;;5059815;28;20028;-49
2023/12/29 07:16:10;;;;;;;21.35;4.68;;;8.90;86.20;;;;;;5063432;28;20025;-48
2023/12/29 07:18:37;;;;;;;21.38;4.15;;;8.90;86.30;;;;;;5062860;28;20028;-52
2023/12/29 07:21:06;;;;;;;19.73;4.63;;;8.90;86.30;;;;;;5066151;28;20064;-48
2023/12/29 07:23:32;;;;;;;20.02;4.10;;;8.90;86.10;;;;;;5081020;28;20354;-48
2023/12/29 07:25:59;;;;;;;14.95;3.65;;;8.90;86.00;;;;;;5079343;28;20021;-48
2023/12/29 07:28:28;;;;;;;21.23;4.20;;;8.90;85.60;;;;;;5073094;28;20454;-47
2023/12/29 07:30:55;;;;;;;17.67;5.35;;;8.90;85.50;;;;;;5070143;28;20116;-48
2023/12/29 07:33:21;;;;;;;21.88;5.72;;;8.90;85.30;;;;;;5055242;28;20031;-49
2023/12/29 07:35:47;;;;;;;18.23;3.75;;;8.90;85.20;;;;;;5073148;28;20028;-51
2023/12/29 07:38:14;;;;;;;20.02;3.90;;;8.90;85.30;;;;;;5062392;28;20119;-48
2023/12/29 07:40:40;;;;;;;17.38;4.13;;;8.80;85.20;;;;;;5075491;28;20029;-48
2023/12/29 07:43:10;;;;;;;15.30;4.20;;;8.80;85.10;;;;;;5078580;28;20050;-49
2023/12/29 07:45:37;;;;;;;20.17;5.55;;;8.80;85.30;;;;;;5085997;28;20035;-48
2023/12/29 07:48:05;;;;;;;22.25;4.03;;;8.70;85.50;;;;;;5080627;28;20104;-48
2023/12/29 07:50:32;;;;;;;15.13;3.10;;;8.70;85.50;;;;;;5072368;28;20031;-49
2023/12/29 07:53:02;;;;;;;11.80;3.65;;;8.70;85.60;;;;;;5084573;28;20031;-48
2023/12/29 07:55:30;;;;;;;15.50;5.43;;;8.70;85.80;;;;;;5069886;28;20024;-48
2023/12/29 07:57:57;;;;;;;11.07;2.40;;;8.80;86.10;;;;;;5088193;28;20016;-48
2023/12/29 08:00:26;;;;;;;12.70;2.75;;;8.70;86.50;;;;;;5074464;28;20032;-47
2023/12/29 08:02:59;;;;;;;16.77;3.38;;;8.70;86.90;;;;;;5074835;28;20025;-50
2023/12/29 08:05:25;;;;;;;15.25;2.60;;;8.60;86.90;;;;;;5072803;28;20410;-50
2023/12/29 08:07:53;;;;;;;13.07;2.83;;;8.50;86.40;;;;;;5073079;28;20047;-48
2023/12/29 08:10:20;;;;;;;15.98;4.70;;;8.40;86.50;;;;;;5075186;28;20035;-47
2023/12/29 08:12:47;;;;;;;22.88;6.35;;;8.40;87.00;;;;;;5072724;28;20093;-49
2023/12/29 08:15:14;;;;;;;13.35;3.17;;;8.30;87.40;;;;;;5072569;28;20635;-48
2023/12/29 08:17:44;;;;;;;14.98;2.90;;;8.30;86.90;;;;;;5071887;28;20174;-50
2023/12/29 08:20:10;;;;;;;;;;;8.20;86.30;;;;;;5072425;28;20119;-50
2023/12/29 08:22:39;;;;;;;15.68;3.17;;;8.20;86.10;;;;;;5054170;28;19991;-47
2023/12/29 08:25:06;;;;;;;16.55;5.63;;;8.20;86.40;;;;;;5073320;28;20361;-48
2023/12/29 08:27:33;;;;;;;20.25;4.55;;;8.10;86.70;;;;;;5073138;28;20358;-52
2023/12/29 08:29:59;;;;;;;9.20;2.78;;;8.00;86.70;;;;;;5075949;28;20028;-48
2023/12/29 08:32:25;;;;;;;11.38;2.78;;;8.00;86.60;;;;;;5073633;28;20440;-48
2023/12/29 08:34:53;;;;;;;11.70;3.85;;;8.00;86.70;;;;;;5072468;28;20039;-50
2023/12/29 08:37:19;;;;;;;13.95;3.00;;;7.90;86.80;;;;;;5072314;28;20341;-50
2023/12/29 08:39:49;;;;;;;10.73;3.25;;;7.90;87.10;;;;;;5071848;28;20017;-49
2023/12/29 08:42:16;;;;;;;;;;;7.90;87.40;;;;;;5071039;28;20319;-47
2023/12/29 08:44:43;;;;;;;15.00;3.28;;;7.90;87.70;;;;;;5071153;28;19927;-48
2023/12/29 08:47:11;;;;;;;13.13;3.60;;;7.80;88.10;;;;;;5072355;28;20020;-48
2023/12/29 08:49:40;;;;;;;17.00;4.10;;;7.90;88.60;;;;;;5075331;28;20032;-47
2023/12/29 08:52:08;;;;;;;18.20;4.35;;;7.90;88.80;;;;;;5075162;28;20090;-50
2023/12/29 08:54:42;;;;;;;26.02;4.28;;;7.90;89.10;;;;;;5075782;28;20028;-51
2023/12/29 08:57:14;;;;;;;17.52;3.70;;;7.90;89.50;;;;;;5077277;28;20028;-51
2023/12/29 08:59:40;;;;;;;19.52;5.07;;;7.90;89.90;;;;;;5075986;28;20491;-49
2023/12/29 09:02:08;;;;;;;25.17;5.00;;;7.90;90.20;;;;;;5078965;28;20032;-48
2023/12/29 09:04:35;;;;;;;29.20;5.10;;;7.90;90.40;;;;;;5078331;28;20016;-50
2023/12/29 09:07:01;;;;;;;15.73;4.40;;;7.90;90.40;;;;;;5080062;28;20027;-49
2023/12/29 09:09:26;;;;;;;20.48;4.78;;;8.10;90.30;;;;;;5077473;28;20038;-48
2023/12/29 09:11:54;;;;;;;17.13;4.97;;;8.20;89.80;;;;;;5075881;28;20106;-49
2023/12/29 09:14:20;;;;;;;22.13;5.50;;;8.30;89.80;;;;;;5075204;28;20393;-47
2023/12/29 09:16:49;;;;;;;24.90;5.07;;;8.40;89.50;;;;;;5057640;28;20023;-49
2023/12/29 09:19:15;;;;;;;25.20;4.77;;;8.40;89.20;;;;;;5080020;28;20031;-48
2023/12/29 09:21:47;;;;;;;18.70;3.58;;;8.50;88.90;;;;;;5075221;28;20044;-48
2023/12/29 09:24:14;;;;;;;15.68;3.63;;;8.50;88.60;;;;;;5075666;28;20033;-50
2023/12/29 09:26:41;;;;;;;22.77;5.10;;;8.70;88.50;;;;;;5075836;28;20048;-49
2023/12/29 09:29:12;;;;;;;23.50;4.88;;;8.80;88.40;;;;;;5078195;28;20021;-48
2023/12/29 09:31:38;;;;;;;19.88;5.93;;;8.90;88.10;;;;;;5073794;28;20054;-47
2023/12/29 09:34:04;;;;;;;30.88;5.65;;;8.90;87.80;;;;;;5074942;28;20166;-48
2023/12/29 09:36:31;;;;;;;19.77;4.60;;;9.00;88.00;;;;;;5076582;28;20029;-49
2023/12/29 09:39:00;;;;;;;25.20;4.50;;;9.00;87.60;;;;;;5074843;28;20036;-47
2023/12/29 09:41:30;;;;;;;24.50;4.93;;;9.00;87.60;;;;;;5081466;28;20484;-48
2023/12/29 09:44:00;;;;;;;19.08;5.00;;;9.00;87.00;;;;;;5081032;28;20024;-48
2023/12/29 09:46:30;;;;;;;21.52;5.40;;;9.00;86.60;;;;;;5080851;28;20075;-52
2023/12/29 09:49:02;;;;;;;18.17;4.22;;;9.00;86.60;;;;;;5087436;28;20431;-50
2023/12/29 09:51:30;;;;;;;23.85;5.38;;;9.00;86.10;;;;;;5074405;28;20043;-49
2023/12/29 09:54:01;;;;;;;23.05;4.65;;;9.00;85.20;;;;;;5077412;28;20470;-48
2023/12/29 09:56:28;;;;;;;23.73;6.28;;;9.00;84.70;;;;;;5080353;28;20052;-48
2023/12/29 09:58:56;;;;;;;20.08;3.83;;;9.10;84.70;;;;;;5058759;28;20071;-47
2023/12/29 10:01:27;;;;;;;18.42;4.45;;;9.10;83.70;;;;;;5075244;28;20032;-48
2023/12/29 10:03:54;;;;;;;18.27;5.40;;;9.10;83.80;;;;;;5074765;28;20481;-48
2023/12/29 10:06:24;;;;;;;22.45;4.03;;;9.20;83.20;;;;;;5074954;28;20021;-50
2023/12/29 10:08:53;;;;;;;13.60;4.47;;;9.30;82.90;;;;;;5074596;28;20387;-49
2023/12/29 10:11:24;;;;;;;15.75;5.88;;;9.30;82.90;;;;;;5074715;28;20024;-49
2023/12/29 10:13:57;;;;;;;17.73;4.00;;;9.30;82.80;;;;;;5074424;28;20199;-50
2023/12/29 10:16:42;;;;;;;18.63;4.00;;;9.30;82.70;;;;;;5074440;28;20024;-51
2023/12/29 10:19:34;;;;;;;14.68;3.20;;;9.40;81.90;;;;;;5073575;28;20396;-48
2023/12/29 10:22:14;;;;;;;17.52;3.72;;;9.40;81.60;;;;;;5073525;28;20044;-48
2023/12/29 10:24:43;;;;;;;15.95;3.90;;;9.30;81.90;;;;;;5072557;28;20568;-49
2023/12/29 10:27:10;;;;;;;11.20;3.10;;;9.20;82.20;;;;;;5073620;28;20434;-49
2023/12/29 10:29:37;;;;;;;14.63;3.10;;;9.10;82.30;;;;;;5074580;28;20361;-53
2023/12/29 10:32:04;;;;;;;11.73;3.70;;;9.10;82.50;;;;;;5079714;28;20083;-48
2023/12/29 10:34:31;;;;;;;16.33;5.25;;;9.00;82.70;;;;;;5080170;28;20030;-52
2023/12/29 10:37:14;;;;;;;19.67;3.83;;;9.00;83.10;;;;;;5074510;28;20413;-48
2023/12/29 10:39:58;;;;;;;17.38;3.72;;;9.00;83.20;;;;;;5078287;28;20418;-48
2023/12/29 10:42:27;;;;;;;19.10;4.30;;;9.00;83.60;;;;;;5080287;28;20082;-52
2023/12/29 10:45:09;;;;;;;20.25;4.05;;;9.00;83.70;;;;;;5074043;28;20407;-51
2023/12/29 10:47:38;;;;;;;17.50;3.50;;;9.00;83.80;;;;;;5073674;28;20714;-48
2023/12/29 10:50:08;;;;;;;17.50;3.95;;;9.10;83.70;;;;;;5074170;28;20422;-48
2023/12/29 10:52:37;;;;;;;13.18;3.70;;;9.10;83.70;;;;;;5073034;28;20031;-52
2023/12/29 10:55:09;;;;;;;13.70;4.03;;;9.10;83.70;;;;;;5072086;28;20489;-48
2023/12/29 10:57:37;;;;;;;17.40;3.40;;;9.10;84.10;;;;;;5072275;28;20428;-48
2023/12/29 11:00:04;;;;;;;16.30;3.00;;;9.30;84.20;;;;;;5055288;28;20354;-53
2023/12/29 11:02:32;;;;;;;16.10;5.20;;;9.40;84.20;;;;;;5072894;28;20036;-49
2023/12/29 11:05:11;;;;;;;21.55;5.35;;;9.40;84.20;;;;;;5054683;28;20107;-54
2023/12/29 11:07:41;;;;;;;;;;;9.40;84.20;;;;;;5073384;28;20020;-52
2023/12/29 11:10:08;;;;;;;;;;;9.40;84.30;;;;;;5078118;28;19908;-55
2023/12/29 11:12:37;;;;;;;18.42;3.83;;;9.50;84.20;;;;;;5072283;28;19912;-51
2023/12/29 11:15:05;;;;;;;15.18;3.45;;;9.50;84.10;;;;;;5072617;28;20411;-48
2023/12/29 11:17:36;;;;;;;19.23;3.70;;;9.50;84.10;;;;;;5072426;28;20116;-51
2023/12/29 11:20:06;;;;;;;19.55;3.95;;;9.60;84.30;;;;;;5083031;28;20063;-53
2023/12/29 11:22:33;;;;;;;25.33;5.10;;;9.50;83.90;;;;;;5074698;28;20047;-48
2023/12/29 11:25:00;;;;;;;17.08;5.22;;;9.60;84.00;;;;;;5072638;28;20045;-52
2023/12/29 11:27:29;;;;;;;14.32;4.10;;;9.60;83.60;;;;;;5071963;28;20114;-48
2023/12/29 11:30:00;;;;;;;16.83;3.67;;;9.60;83.20;;;;;;5072364;28;20028;-48
2023/12/29 11:32:59;;;;;;;15.63;4.53;;;9.60;83.00;;;;;;5072174;28;20025;-47
2023/12/29 11:35:53;;;;;;;14.30;3.97;;;9.60;82.40;;;;;;5062265;28;20039;-50
2023/12/29 11:38:49;;;;;;;22.60;4.55;;;9.50;82.30;;;;;;5073410;28;20031;-51
2023/12/29 11:41:48;;;;;;;21.40;4.55;;;9.40;82.60;;;;;;5078500;28;20036;-53
2023/12/29 11:44:26;;;;;;;16.10;5.07;;;9.60;82.40;;;;;;5086990;28;20524;-50
2023/12/29 11:46:55;;;;;;;17.35;4.35;;;9.80;82.20;;;;;;5087731;28;20079;-48
2023/12/29 11:49:22;;;;;;;16.48;4.25;;;9.80;81.90;;;;;;5086447;28;20432;-53
2023/12/29 11:51:50;;;;;;;21.48;4.70;;;9.80;81.90;;;;;;5086696;28;20032;-51
2023/12/29 11:54:27;;;;;;;17.08;3.30;;;9.70;81.10;;;;;;5087700;28;20047;-52
2023/12/29 11:56:56;;;;;;;15.00;2.97;;;9.70;80.70;;;;;;5088371;28;20040;-49
2023/12/29 11:59:24;;;;;;;;;;;9.60;80.20;;;;;;5091285;28;20039;-53
2023/12/29 12:01:54;;;;;;;20.38;4.20;;;9.70;79.90;;;;;;5087901;28;19988;-53
2023/12/29 12:04:46;;;;;;;13.32;4.03;;;9.60;78.10;;;;;;5083791;28;20464;-49
2023/12/29 12:07:43;;;;;;;15.52;5.13;;;9.50;77.40;;;;;;5059314;28;20449;-50
2023/12/29 12:10:23;;;;;;;13.45;3.05;;;9.40;77.70;;;;;;5076299;28;20465;-50
2023/12/29 12:12:54;;;;;;;13.20;4.65;;;9.40;77.10;;;;;;5071655;28;20383;-48
2023/12/29 12:15:38;;;;;;;12.55;3.28;;;9.40;77.10;;;;;;5071372;28;20100;-53
2023/12/29 12:18:09;;;;;;;15.95;3.30;;;9.50;76.30;;;;;;5071653;28;20029;-53
2023/12/29 12:20:39;;;;;;;15.65;3.55;;;9.50;76.30;;;;;;5073871;28;20040;-50
2023/12/29 12:23:17;;;;;;;18.48;3.53;;;9.50;76.00;;;;;;5078183;28;20020;-53
2023/12/29 12:25:46;;;;;;;18.85;4.15;;;9.70;75.80;;;;;;5062665;28;20326;-50
2023/12/29 12:28:16;;;;;;;14.25;4.13;;;9.70;75.60;;;;;;5086592;28;20438;-50
2023/12/29 12:30:46;;;;;;;16.92;4.07;;;9.70;76.20;;;;;;5078106;28;20100;-48
2023/12/29 12:33:13;;;;;;;15.52;2.95;;;9.50;75.50;;;;;;5078206;28;20025;-52
2023/12/29 12:35:44;;;;;;;17.40;4.43;;;9.40;75.40;;;;;;5092194;28;20051;-52
2023/12/29 12:38:24;;;;;;;15.57;3.70;;;9.30;76.00;;;;;;5078550;28;20028;-53
2023/12/29 12:40:53;;;;;;;18.33;4.15;;;9.20;76.10;;;;;;5078286;28;20422;-53
2023/12/29 12:43:24;;;;;;;17.52;3.67;;;9.20;75.90;;;;;;5078009;28;20118;-53
2023/12/29 12:46:02;;;;;;;16.55;3.38;;;9.20;75.80;;;;;;5077874;28;20074;-53
2023/12/29 12:48:45;;;;;;;20.70;5.93;;;9.20;76.30;;;;;;5077915;28;20132;-50
2023/12/29 12:51:13;;;;;;;12.10;3.85;;;9.10;76.80;;;;;;5077927;28;20024;-52
2023/12/29 12:53:44;;;;;;;11.43;4.20;;;9.10;77.20;;;;;;5077903;28;20020;-51
2023/12/29 12:56:11;;;;;;;12.82;3.47;;;9.00;76.60;;;;;;5077477;28;20028;-52
2023/12/29 12:58:38;;;;;;;21.10;4.13;;;9.00;76.30;;;;;;5077229;28;20461;-49
2023/12/29 13:01:05;;;;;;;17.63;4.25;;;9.00;75.60;;;;;;5077172;28;20489;-52